Time,TemperatureF,DewpointF,PressureIn,WindDirection,WindDirectionDegrees,WindSpeedMPH,WindSpeedGustMPH,Humidity,HourlyPrecipIn,Conditions,Clouds,dailyrainin,SoftwareType,DateUTC
2013-02-05 00:01:00,46.6,30.4,30.14,SE,132,1.0,5.0,53,0.00,,,0.00,meteohub,2013-02-05 08:01:00,
2013-02-05 00:06:00,46.2,30.0,30.14,SSE,155,2.0,5.0,53,0.00,,,0.00,meteohub,2013-02-05 08:06:00,
2013-02-05 00:11:00,45.9,30.2,30.14,SSE,151,1.0,5.0,54,0.00,,,0.00,meteohub,2013-02-05 08:11:00,
2013-02-05 00:16:00,45.5,29.3,30.14,SSW,207,1.0,5.0,53,0.00,,,0.00,meteohub,2013-02-05 08:16:00,
2013-02-05 00:21:00,45.3,28.8,30.14,ESE,113,3.0,5.0,52,0.00,,,0.00,meteohub,2013-02-05 08:21:00,
2013-02-05 00:26:00,45.1,28.0,30.14,WNW,302,2.0,5.0,51,0.00,,,0.00,meteohub,2013-02-05 08:26:00,
2013-02-05 00:31:00,44.8,26.8,30.14,WSW,252,2.0,5.0,49,0.00,,,0.00,meteohub,2013-02-05 08:31:00,
2013-02-05 00:36:00,44.6,25.7,30.14,SE,139,2.0,5.0,47,0.00,,,0.00,meteohub,2013-02-05 08:36:00,
2013-02-05 00:42:00,44.8,23.7,30.13,South,190,0.0,5.0,43,0.00,,,0.00,meteohub,2013-02-05 08:42:00,
2013-02-05 00:47:00,44.8,24.3,30.14,South,181,2.0,5.0,44,0.00,,,0.00,meteohub,2013-02-05 08:47:00,
2013-02-05 00:52:00,44.8,24.3,30.13,SE,132,1.0,4.0,44,0.00,,,0.00,meteohub,2013-02-05 08:52:00,
2013-02-05 00:57:00,44.8,24.8,30.13,West,273,1.0,4.0,45,0.00,,,0.00,meteohub,2013-02-05 08:57:00,
2013-02-05 01:02:00,44.8,24.8,30.13,ESE,104,1.0,4.0,45,0.00,,,0.00,meteohub,2013-02-05 09:02:00,
2013-02-05 01:07:00,44.8,25.7,30.13,SW,235,0.0,4.0,47,0.00,,,0.00,meteohub,2013-02-05 09:07:00,
2013-02-05 01:12:00,44.8,26.2,30.13,SW,226,1.0,3.0,48,0.00,,,0.00,meteohub,2013-02-05 09:12:00,
2013-02-05 01:17:00,44.6,26.6,30.13,SSW,193,0.0,3.0,49,0.00,,,0.00,meteohub,2013-02-05 09:17:00,
2013-02-05 01:22:00,44.4,27.5,30.12,SW,229,1.0,4.0,51,0.00,,,0.00,meteohub,2013-02-05 09:22:00,
2013-02-05 01:27:00,44.1,27.1,30.12,WSW,238,1.0,4.0,51,0.00,,,0.00,meteohub,2013-02-05 09:27:00,
2013-02-05 01:32:00,43.5,27.1,30.13,WSW,240,1.0,2.0,52,0.00,,,0.00,meteohub,2013-02-05 09:32:00,
2013-02-05 01:37:00,43.2,26.8,30.13,WSW,240,0.0,2.0,52,0.00,,,0.00,meteohub,2013-02-05 09:37:00,
2013-02-05 01:42:00,43.2,26.8,30.13,WSW,240,1.0,2.0,52,0.00,,,0.00,meteohub,2013-02-05 09:42:00,
2013-02-05 01:47:00,43.2,26.8,30.12,WSW,240,1.0,2.0,52,0.00,,,0.00,meteohub,2013-02-05 09:47:00,
2013-02-05 01:52:00,43.0,27.0,30.12,WSW,240,0.0,1.0,53,0.00,,,0.00,meteohub,2013-02-05 09:52:00,
2013-02-05 01:57:00,42.6,26.6,30.12,WSW,238,0.0,1.0,53,0.00,,,0.00,meteohub,2013-02-05 09:57:00,
2013-02-05 02:02:00,42.6,27.1,30.12,WSW,238,0.0,1.0,54,0.00,,,0.00,meteohub,2013-02-05 10:02:00,
2013-02-05 02:07:00,42.6,26.6,30.12,WSW,238,0.0,0.0,53,0.00,,,0.00,meteohub,2013-02-05 10:07:00,
2013-02-05 02:12:00,42.8,26.8,30.12,WSW,240,0.0,0.0,53,0.00,,,0.00,meteohub,2013-02-05 10:12:00,
2013-02-05 02:17:00,43.2,26.2,30.12,WSW,240,0.0,0.0,51,0.00,,,0.00,meteohub,2013-02-05 10:17:00,
2013-02-05 02:22:00,43.5,26.6,30.12,WSW,240,0.0,0.0,51,0.00,,,0.00,meteohub,2013-02-05 10:22:00,
2013-02-05 02:27:00,43.5,26.6,30.12,WSW,240,0.0,0.0,51,0.00,,,0.00,meteohub,2013-02-05 10:27:00,
2013-02-05 02:32:00,43.5,26.6,30.12,WSW,240,0.0,0.0,51,0.00,,,0.00,meteohub,2013-02-05 10:32:00,
2013-02-05 02:37:00,43.2,26.2,30.12,WSW,240,0.0,0.0,51,0.00,,,0.00,meteohub,2013-02-05 10:37:00,
2013-02-05 02:42:00,43.3,26.4,30.11,WSW,240,0.0,0.0,51,0.00,,,0.00,meteohub,2013-02-05 10:42:00,
2013-02-05 02:47:00,43.3,26.4,30.11,WSW,238,0.0,0.0,51,0.00,,,0.00,meteohub,2013-02-05 10:47:00,
2013-02-05 02:52:00,43.5,26.1,30.11,WSW,239,0.0,0.0,50,0.00,,,0.00,meteohub,2013-02-05 10:52:00,
2013-02-05 02:57:00,43.5,26.1,30.11,WSW,239,0.0,0.0,50,0.00,,,0.00,meteohub,2013-02-05 10:57:00,
2013-02-05 03:02:00,43.7,26.2,30.11,WSW,239,0.0,0.0,50,0.00,,,0.00,meteohub,2013-02-05 11:02:00,
2013-02-05 03:07:00,43.9,26.4,30.11,WSW,239,0.0,0.0,50,0.00,,,0.00,meteohub,2013-02-05 11:07:00,
2013-02-05 03:12:00,44.1,26.6,30.11,WSW,240,0.0,0.0,50,0.00,,,0.00,meteohub,2013-02-05 11:12:00,
2013-02-05 03:17:00,43.9,26.4,30.11,WSW,239,0.0,0.0,50,0.00,,,0.00,meteohub,2013-02-05 11:17:00,
2013-02-05 03:22:00,44.1,26.6,30.10,WSW,239,0.0,0.0,50,0.00,,,0.00,meteohub,2013-02-05 11:22:00,
2013-02-05 03:27:00,44.1,26.1,30.10,WSW,238,0.0,0.0,49,0.00,,,0.00,meteohub,2013-02-05 11:27:00,
2013-02-05 03:32:00,43.9,25.9,30.10,WSW,238,0.0,0.0,49,0.00,,,0.00,meteohub,2013-02-05 11:32:00,
2013-02-05 03:37:00,43.9,26.4,30.09,WSW,238,0.0,0.0,50,0.00,,,0.00,meteohub,2013-02-05 11:37:00,
2013-02-05 03:42:00,43.7,26.2,30.09,WSW,239,0.0,0.0,50,0.00,,,0.00,meteohub,2013-02-05 11:42:00,
2013-02-05 03:47:00,43.9,25.9,30.09,WSW,238,0.0,0.0,49,0.00,,,0.00,meteohub,2013-02-05 11:47:00,
2013-02-05 03:52:00,43.9,25.9,30.09,WSW,238,0.0,0.0,49,0.00,,,0.00,meteohub,2013-02-05 11:52:00,
2013-02-05 03:57:00,43.7,26.2,30.09,WSW,238,0.0,0.0,50,0.00,,,0.00,meteohub,2013-02-05 11:57:00,
2013-02-05 04:02:00,43.5,26.1,30.09,WSW,239,0.0,0.0,50,0.00,,,0.00,meteohub,2013-02-05 12:02:00,
2013-02-05 04:07:00,43.5,26.1,30.09,WSW,239,0.0,0.0,50,0.00,,,0.00,meteohub,2013-02-05 12:07:00,
2013-02-05 04:12:00,43.7,26.2,30.09,WSW,238,0.0,0.0,50,0.00,,,0.00,meteohub,2013-02-05 12:12:00,
2013-02-05 04:17:00,43.7,26.2,30.09,WSW,239,0.0,0.0,50,0.00,,,0.00,meteohub,2013-02-05 12:17:00,
2013-02-05 04:22:00,43.9,25.9,30.09,SW,235,0.0,0.0,49,0.00,,,0.00,meteohub,2013-02-05 12:22:00,
2013-02-05 04:27:00,44.1,26.1,30.09,WSW,238,0.0,0.0,49,0.00,,,0.00,meteohub,2013-02-05 12:27:00,
2013-02-05 04:32:00,44.1,26.1,30.09,WSW,238,0.0,0.0,49,0.00,,,0.00,meteohub,2013-02-05 12:32:00,
2013-02-05 04:37:00,44.1,26.1,30.09,WSW,238,0.0,0.0,49,0.00,,,0.00,meteohub,2013-02-05 12:37:00,
2013-02-05 04:42:00,44.1,26.1,30.09,WSW,238,0.0,0.0,49,0.00,,,0.00,meteohub,2013-02-05 12:42:00,
2013-02-05 04:47:00,44.1,26.1,30.09,WSW,243,0.0,0.0,49,0.00,,,0.00,meteohub,2013-02-05 12:47:00,
2013-02-05 04:52:00,43.9,25.9,30.09,WSW,243,0.0,0.0,49,0.00,,,0.00,meteohub,2013-02-05 12:52:00,
2013-02-05 04:57:00,43.9,25.9,30.09,WSW,243,0.0,0.0,49,0.00,,,0.00,meteohub,2013-02-05 12:57:00,
2013-02-05 05:02:00,43.9,25.5,30.09,WSW,243,0.0,0.0,48,0.00,,,0.00,meteohub,2013-02-05 13:02:00,
2013-02-05 05:07:00,43.9,25.0,30.09,WSW,243,0.0,0.0,47,0.00,,,0.00,meteohub,2013-02-05 13:07:00,
2013-02-05 05:12:00,43.9,25.5,30.09,WSW,245,0.0,0.0,48,0.00,,,0.00,meteohub,2013-02-05 13:12:00,
2013-02-05 05:17:00,43.9,25.9,30.09,WSW,243,0.0,0.0,49,0.00,,,0.00,meteohub,2013-02-05 13:17:00,
2013-02-05 05:22:00,43.9,25.9,30.09,WSW,243,0.0,0.0,49,0.00,,,0.00,meteohub,2013-02-05 13:22:00,
2013-02-05 05:27:00,44.1,26.1,30.09,WSW,243,0.0,0.0,49,0.00,,,0.00,meteohub,2013-02-05 13:27:00,
2013-02-05 05:32:00,43.9,25.9,30.09,WSW,239,0.0,0.0,49,0.00,,,0.00,meteohub,2013-02-05 13:32:00,
2013-02-05 05:37:00,43.9,25.5,30.09,WSW,239,0.0,0.0,48,0.00,,,0.00,meteohub,2013-02-05 13:37:00,
2013-02-05 05:42:00,43.9,25.0,30.09,WSW,239,0.0,0.0,47,0.00,,,0.00,meteohub,2013-02-05 13:42:00,
2013-02-05 05:47:00,43.9,25.0,30.09,WSW,239,0.0,0.0,47,0.00,,,0.00,meteohub,2013-02-05 13:47:00,
2013-02-05 05:52:00,43.9,25.0,30.08,WSW,240,0.0,0.0,47,0.00,,,0.00,meteohub,2013-02-05 13:52:00,
2013-02-05 05:57:00,44.1,25.2,30.08,WSW,240,0.0,0.0,47,0.00,,,0.00,meteohub,2013-02-05 13:57:00,
2013-02-05 06:02:00,44.1,25.2,30.08,WSW,238,0.0,0.0,47,0.00,,,0.00,meteohub,2013-02-05 14:02:00,
2013-02-05 06:07:00,44.1,23.5,30.08,SW,236,0.0,0.0,44,0.00,,,0.00,meteohub,2013-02-05 14:07:00,
2013-02-05 06:12:00,44.1,23.5,30.08,SW,236,0.0,0.0,44,0.00,,,0.00,meteohub,2013-02-05 14:12:00,
2013-02-05 06:17:00,44.1,23.0,30.08,WSW,238,0.0,0.0,43,0.00,,,0.00,meteohub,2013-02-05 14:17:00,
2013-02-05 06:22:00,44.1,22.5,30.09,SW,236,0.0,0.0,42,0.00,,,0.00,meteohub,2013-02-05 14:22:00,
2013-02-05 06:27:00,44.1,23.0,30.09,SW,222,0.0,0.0,43,0.00,,,0.00,meteohub,2013-02-05 14:27:00,
2013-02-05 06:32:00,44.4,23.4,30.09,SW,224,0.0,0.0,43,0.00,,,0.00,meteohub,2013-02-05 14:32:00,
2013-02-05 06:37:00,44.8,23.7,30.09,SW,224,0.0,0.0,43,0.00,,,0.00,meteohub,2013-02-05 14:37:00,
2013-02-05 06:42:00,44.8,23.0,30.09,SW,224,0.0,0.0,42,0.00,,,0.00,meteohub,2013-02-05 14:42:00,
2013-02-05 06:47:00,45.0,21.6,30.09,WSW,238,0.0,0.0,39,0.00,,,0.00,meteohub,2013-02-05 14:47:00,
2013-02-05 06:52:00,45.1,11.5,30.09,WSW,238,0.0,0.0,25,0.00,,,0.00,meteohub,2013-02-05 14:52:00,
2013-02-05 06:57:00,45.3,10.6,30.09,WSW,238,0.0,0.0,24,0.00,,,0.00,meteohub,2013-02-05 14:57:00,
2013-02-05 07:02:00,45.7,10.9,30.09,SW,228,0.0,0.0,24,0.00,,,0.00,meteohub,2013-02-05 15:02:00,
2013-02-05 07:07:00,46.0,10.2,30.09,SW,218,0.0,0.0,23,0.00,,,0.00,meteohub,2013-02-05 15:07:00,
2013-02-05 07:12:00,46.9,11.1,30.09,SSW,203,0.0,0.0,23,0.00,,,0.00,meteohub,2013-02-05 15:12:00,
2013-02-05 07:17:00,48.0,13.8,30.10,SSE,151,2.0,0.0,25,0.00,,,0.00,meteohub,2013-02-05 15:17:00,
2013-02-05 07:22:00,49.5,16.0,30.10,SSW,207,2.0,5.0,26,0.00,,,0.00,meteohub,2013-02-05 15:22:00,
2013-02-05 07:27:00,50.5,16.9,30.10,SSW,210,1.0,5.0,26,0.00,,,0.00,meteohub,2013-02-05 15:27:00,
2013-02-05 07:32:00,51.4,16.7,30.10,SSE,167,1.0,5.0,25,0.00,,,0.00,meteohub,2013-02-05 15:32:00,
2013-02-05 07:37:00,52.2,17.4,30.11,SSE,148,3.0,5.0,25,0.00,,,0.00,meteohub,2013-02-05 15:37:00,
2013-02-05 07:42:00,52.9,17.1,30.11,SSW,198,2.0,4.0,24,0.00,,,0.00,meteohub,2013-02-05 15:42:00,
2013-02-05 07:47:00,53.2,17.4,30.11,South,174,2.0,6.0,24,0.00,,,0.00,meteohub,2013-02-05 15:47:00,
2013-02-05 07:52:00,53.4,17.6,30.10,SE,134,1.0,6.0,24,0.00,,,0.00,meteohub,2013-02-05 15:52:00,
2013-02-05 07:57:00,53.4,16.5,30.10,SSE,162,2.0,6.0,23,0.00,,,0.00,meteohub,2013-02-05 15:57:00,
2013-02-05 08:02:00,53.8,15.8,30.10,SE,134,5.0,8.0,22,0.00,,,0.00,meteohub,2013-02-05 16:02:00,
2013-02-05 08:07:00,54.1,18.1,30.10,South,173,2.0,8.0,24,0.00,,,0.00,meteohub,2013-02-05 16:07:00,
2013-02-05 08:12:00,54.3,19.2,30.10,ESE,114,3.0,8.0,25,0.00,,,0.00,meteohub,2013-02-05 16:12:00,
2013-02-05 08:17:00,54.3,18.3,30.10,South,170,5.0,7.0,24,0.00,,,0.00,meteohub,2013-02-05 16:17:00,
2013-02-05 08:22:00,54.7,17.6,30.10,East,92,3.0,7.0,23,0.00,,,0.00,meteohub,2013-02-05 16:22:00,
2013-02-05 08:27:00,54.9,20.7,30.10,SE,127,4.0,7.0,26,0.00,,,0.00,meteohub,2013-02-05 16:27:00,
2013-02-05 08:32:00,54.9,22.3,30.11,SSE,155,2.0,7.0,28,0.00,,,0.00,meteohub,2013-02-05 16:32:00,
2013-02-05 08:37:00,54.7,24.6,30.11,SE,135,2.0,8.0,31,0.00,,,0.00,meteohub,2013-02-05 16:37:00,
2013-02-05 08:42:00,54.3,25.2,30.11,South,187,5.0,8.0,32,0.00,,,0.00,meteohub,2013-02-05 16:42:00,
2013-02-05 08:47:00,54.0,25.5,30.11,SSE,159,6.0,8.0,33,0.00,,,0.00,meteohub,2013-02-05 16:47:00,
2013-02-05 08:52:00,53.2,26.2,30.11,ESE,117,4.0,8.0,35,0.00,,,0.00,meteohub,2013-02-05 16:52:00,
2013-02-05 08:58:00,53.4,26.4,30.11,SE,126,2.0,10.0,35,0.00,,,0.00,meteohub,2013-02-05 16:58:00,
2013-02-05 09:03:00,53.4,26.4,30.11,ESE,111,2.0,10.0,35,0.00,,,0.00,meteohub,2013-02-05 17:03:00,
2013-02-05 09:08:00,53.2,24.1,30.11,NNE,23,3.0,10.0,32,0.00,,,0.00,meteohub,2013-02-05 17:08:00,
2013-02-05 09:13:00,53.2,26.2,30.11,SW,222,1.0,10.0,35,0.00,,,0.00,meteohub,2013-02-05 17:13:00,
2013-02-05 09:18:00,53.6,26.6,30.11,ESE,109,6.0,10.0,35,0.00,,,0.00,meteohub,2013-02-05 17:18:00,
2013-02-05 09:23:00,53.4,25.7,30.11,East,99,4.0,10.0,34,0.00,,,0.00,meteohub,2013-02-05 17:23:00,
2013-02-05 09:28:00,53.8,26.8,30.12,East,82,2.0,10.0,35,0.00,,,0.00,meteohub,2013-02-05 17:28:00,
2013-02-05 09:33:00,54.0,27.7,30.11,SSE,160,4.0,9.0,36,0.00,,,0.00,meteohub,2013-02-05 17:33:00,
2013-02-05 09:38:00,54.0,27.7,30.12,South,185,2.0,9.0,36,0.00,,,0.00,meteohub,2013-02-05 17:38:00,
2013-02-05 09:43:00,53.8,27.5,30.12,SE,138,9.0,11.0,36,0.00,,,0.00,meteohub,2013-02-05 17:43:00,
2013-02-05 09:49:00,54.0,27.0,30.12,ESE,120,3.0,11.0,35,0.00,,,0.00,meteohub,2013-02-05 17:49:00,
2013-02-05 09:54:00,54.1,26.4,30.12,SE,124,8.0,11.0,34,0.00,,,0.00,meteohub,2013-02-05 17:54:00,
2013-02-05 09:59:00,54.0,28.2,30.12,SSE,155,3.0,10.0,37,0.00,,,0.00,meteohub,2013-02-05 17:59:00,
2013-02-05 10:04:00,53.8,29.5,30.12,SE,134,10.0,10.0,39,0.00,,,0.00,meteohub,2013-02-05 18:04:00,
2013-02-05 10:09:00,53.6,28.6,30.12,SE,124,7.0,13.0,38,0.00,,,0.00,meteohub,2013-02-05 18:09:00,
2013-02-05 10:14:00,53.4,29.7,30.12,SW,219,4.0,13.0,40,0.00,,,0.00,meteohub,2013-02-05 18:14:00,
2013-02-05 10:19:00,53.4,28.4,30.12,SSE,153,5.0,11.0,38,0.00,,,0.00,meteohub,2013-02-05 18:19:00,
2013-02-05 10:24:00,53.8,27.5,30.12,South,176,5.0,9.0,36,0.00,,,0.00,meteohub,2013-02-05 18:24:00,
2013-02-05 10:29:00,54.1,27.7,30.11,ENE,72,3.0,9.0,36,0.00,,,0.00,meteohub,2013-02-05 18:29:00,
2013-02-05 10:34:00,54.1,29.1,30.11,SE,138,7.0,9.0,38,0.00,,,0.00,meteohub,2013-02-05 18:34:00,
2013-02-05 10:39:00,54.3,27.3,30.11,South,183,3.0,12.0,35,0.00,,,0.00,meteohub,2013-02-05 18:39:00,
2013-02-05 10:44:00,54.1,28.4,30.11,SSE,158,2.0,12.0,37,0.00,,,0.00,meteohub,2013-02-05 18:44:00,
2013-02-05 10:49:00,54.1,26.4,30.11,ENE,65,6.0,12.0,34,0.00,,,0.00,meteohub,2013-02-05 18:49:00,
2013-02-05 10:55:00,54.3,26.6,30.11,SSW,211,3.0,10.0,34,0.00,,,0.00,meteohub,2013-02-05 18:55:00,
2013-02-05 11:00:00,54.9,28.4,30.11,ESE,110,1.0,11.0,36,0.00,,,0.00,meteohub,2013-02-05 19:00:00,
2013-02-05 11:05:00,55.2,28.8,30.11,South,170,2.0,11.0,36,0.00,,,0.00,meteohub,2013-02-05 19:05:00,
2013-02-05 11:10:00,55.4,31.5,30.10,WSW,240,4.0,8.0,40,0.00,,,0.00,meteohub,2013-02-05 19:10:00,
2013-02-05 11:15:00,55.2,28.8,30.10,SE,131,4.0,8.0,36,0.00,,,0.00,meteohub,2013-02-05 19:15:00,
2013-02-05 11:20:00,54.9,28.4,30.10,ESE,109,8.0,8.0,36,0.00,,,0.00,meteohub,2013-02-05 19:20:00,
2013-02-05 11:25:00,54.3,28.6,30.09,SSE,153,1.0,11.0,37,0.00,,,0.00,meteohub,2013-02-05 19:25:00,
2013-02-05 11:30:00,54.5,31.3,30.09,East,100,4.0,11.0,41,0.00,,,0.00,meteohub,2013-02-05 19:30:00,
2013-02-05 11:35:00,54.5,32.5,30.09,ESE,103,5.0,11.0,43,0.00,,,0.00,meteohub,2013-02-05 19:35:00,
2013-02-05 11:40:00,54.3,34.0,30.09,SE,128,5.0,8.0,46,0.00,,,0.00,meteohub,2013-02-05 19:40:00,
2013-02-05 11:45:00,54.5,34.2,30.08,ESE,120,3.0,8.0,46,0.00,,,0.00,meteohub,2013-02-05 19:45:00,
2013-02-05 11:50:00,54.5,33.6,30.08,SSE,165,6.0,8.0,45,0.00,,,0.00,meteohub,2013-02-05 19:50:00,
2013-02-05 11:56:00,54.1,34.9,30.07,SSW,208,1.0,11.0,48,0.00,,,0.00,meteohub,2013-02-05 19:56:00,
2013-02-05 12:01:00,54.1,32.7,30.07,WSW,252,5.0,11.0,44,0.00,,,0.00,meteohub,2013-02-05 20:01:00,
2013-02-05 12:06:00,54.0,32.5,30.07,SW,223,3.0,12.0,44,0.00,,,0.00,meteohub,2013-02-05 20:06:00,
2013-02-05 12:11:00,53.8,29.5,30.06,SSE,158,3.0,12.0,39,0.00,,,0.00,meteohub,2013-02-05 20:11:00,
2013-02-05 12:16:00,53.8,28.8,30.06,South,170,5.0,12.0,38,0.00,,,0.00,meteohub,2013-02-05 20:16:00,
2013-02-05 12:21:00,53.8,27.5,30.06,South,169,2.0,11.0,36,0.00,,,0.00,meteohub,2013-02-05 20:21:00,
2013-02-05 12:26:00,54.0,25.5,30.05,SW,236,3.0,9.0,33,0.00,,,0.00,meteohub,2013-02-05 20:26:00,
2013-02-05 12:31:00,54.3,25.9,30.05,WSW,246,6.0,9.0,33,0.00,,,0.00,meteohub,2013-02-05 20:31:00,
2013-02-05 12:36:00,54.3,25.9,30.05,SE,142,6.0,11.0,33,0.00,,,0.00,meteohub,2013-02-05 20:36:00,
2013-02-05 12:41:00,54.3,27.9,30.04,WSW,253,10.0,11.0,36,0.00,,,0.00,meteohub,2013-02-05 20:41:00,
2013-02-05 12:46:00,54.3,31.6,30.04,SSE,155,6.0,11.0,42,0.00,,,0.00,meteohub,2013-02-05 20:46:00,
2013-02-05 12:52:00,54.1,30.9,30.04,ESE,112,5.0,10.0,41,0.00,,,0.00,meteohub,2013-02-05 20:52:00,
2013-02-05 12:57:00,53.8,32.4,30.04,SW,215,3.0,11.0,44,0.00,,,0.00,meteohub,2013-02-05 20:57:00,
2013-02-05 13:02:00,53.8,32.4,30.04,ESE,113,7.0,11.0,44,0.00,,,0.00,meteohub,2013-02-05 21:02:00,
2013-02-05 13:07:00,53.1,31.1,30.03,ENE,78,2.0,11.0,43,0.00,,,0.00,meteohub,2013-02-05 21:07:00,
2013-02-05 13:12:00,53.2,31.8,30.03,ESE,105,3.0,12.0,44,0.00,,,0.00,meteohub,2013-02-05 21:12:00,
2013-02-05 13:17:00,53.2,31.8,30.03,SSE,162,6.0,12.0,44,0.00,,,0.00,meteohub,2013-02-05 21:17:00,
2013-02-05 13:22:00,53.2,32.4,30.03,South,181,2.0,12.0,45,0.00,,,0.00,meteohub,2013-02-05 21:22:00,
2013-02-05 13:27:00,53.2,30.7,30.03,South,179,2.0,9.0,42,0.00,,,0.00,meteohub,2013-02-05 21:27:00,
2013-02-05 13:32:00,53.1,30.0,30.03,South,174,4.0,11.0,41,0.00,,,0.00,meteohub,2013-02-05 21:32:00,
2013-02-05 13:37:00,52.9,29.8,30.02,West,263,4.0,11.0,41,0.00,,,0.00,meteohub,2013-02-05 21:37:00,
2013-02-05 13:42:00,52.9,30.9,30.02,SSE,158,5.0,11.0,43,0.00,,,0.00,meteohub,2013-02-05 21:42:00,
2013-02-05 13:47:00,53.1,31.1,30.02,SE,144,3.0,9.0,43,0.00,,,0.00,meteohub,2013-02-05 21:47:00,
2013-02-05 13:52:00,53.1,30.0,30.02,West,260,3.0,11.0,41,0.00,,,0.00,meteohub,2013-02-05 21:52:00,
2013-02-05 13:57:00,52.9,28.6,30.02,South,179,4.0,11.0,39,0.00,,,0.00,meteohub,2013-02-05 21:57:00,
2013-02-05 14:02:00,52.7,30.2,30.02,ENE,72,2.0,11.0,42,0.00,,,0.00,meteohub,2013-02-05 22:02:00,
2013-02-05 14:07:00,52.5,30.0,30.02,SSW,197,1.0,11.0,42,0.00,,,0.00,meteohub,2013-02-05 22:07:00,
2013-02-05 14:12:00,52.9,31.6,30.02,ESE,108,2.0,11.0,44,0.00,,,0.00,meteohub,2013-02-05 22:12:00,
2013-02-05 14:17:00,52.5,32.4,30.02,SSE,148,2.0,7.0,46,0.00,,,0.00,meteohub,2013-02-05 22:17:00,
2013-02-05 14:22:00,52.2,33.1,30.01,SSE,160,2.0,10.0,48,0.00,,,0.00,meteohub,2013-02-05 22:22:00,
2013-02-05 14:27:00,52.0,33.4,30.01,ESE,108,4.0,10.0,49,0.00,,,0.00,meteohub,2013-02-05 22:27:00,
2013-02-05 14:32:00,51.8,34.7,30.01,ESE,109,5.0,12.0,52,0.00,,,0.00,meteohub,2013-02-05 22:32:00,
2013-02-05 14:37:00,51.4,34.3,30.01,ESE,117,4.0,12.0,52,0.00,,,0.00,meteohub,2013-02-05 22:37:00,
2013-02-05 14:43:00,51.3,32.2,30.01,East,79,2.0,12.0,48,0.00,,,0.00,meteohub,2013-02-05 22:43:00,
2013-02-05 14:48:00,51.3,32.7,30.01,SE,135,9.0,12.0,49,0.00,,,0.00,meteohub,2013-02-05 22:48:00,
2013-02-05 14:53:00,51.3,33.3,30.01,SW,219,7.0,13.0,50,0.00,,,0.00,meteohub,2013-02-05 22:53:00,
2013-02-05 14:58:00,51.1,35.1,30.01,SSE,167,4.0,13.0,54,0.00,,,0.00,meteohub,2013-02-05 22:58:00,
2013-02-05 15:03:00,51.1,35.1,30.01,South,170,4.0,13.0,54,0.00,,,0.00,meteohub,2013-02-05 23:03:00,
2013-02-05 15:08:00,50.9,35.2,30.01,WSW,255,4.0,12.0,55,0.00,,,0.00,meteohub,2013-02-05 23:08:00,
2013-02-05 15:13:00,50.5,34.0,30.01,SSE,156,3.0,10.0,53,0.00,,,0.00,meteohub,2013-02-05 23:13:00,
2013-02-05 15:18:00,50.2,33.6,30.01,ESE,107,5.0,10.0,53,0.00,,,0.00,meteohub,2013-02-05 23:18:00,
2013-02-05 15:23:00,49.8,32.9,30.01,SE,145,2.0,11.0,52,0.00,,,0.00,meteohub,2013-02-05 23:23:00,
2013-02-05 15:28:00,49.6,32.7,30.01,East,89,2.0,11.0,52,0.00,,,0.00,meteohub,2013-02-05 23:28:00,
2013-02-05 15:33:00,49.3,32.9,30.01,South,172,6.0,9.0,53,0.00,,,0.00,meteohub,2013-02-05 23:33:00,
2013-02-05 15:39:00,48.7,31.8,30.01,SSE,159,4.0,9.0,52,0.00,,,0.00,meteohub,2013-02-05 23:39:00,
2013-02-05 15:44:00,48.6,32.2,30.01,ESE,121,4.0,8.0,53,0.00,,,0.00,meteohub,2013-02-05 23:44:00,
2013-02-05 15:49:00,48.2,31.8,30.01,ESE,117,1.0,7.0,53,0.00,,,0.00,meteohub,2013-02-05 23:49:00,
2013-02-05 15:54:00,48.2,31.5,30.01,ESE,110,2.0,7.0,52,0.00,,,0.00,meteohub,2013-02-05 23:54:00,
2013-02-05 15:59:00,48.4,31.6,30.01,East,98,3.0,8.0,52,0.00,,,0.00,meteohub,2013-02-05 23:59:00,
2013-02-05 16:04:00,48.4,31.1,30.01,SSE,147,2.0,9.0,51,0.00,,,0.00,meteohub,2013-02-06 00:04:00,
2013-02-05 16:10:00,48.4,31.1,30.01,ESE,117,4.0,10.0,51,0.00,,,0.00,meteohub,2013-02-06 00:10:00,
2013-02-05 16:15:00,48.0,30.7,30.01,ESE,102,3.0,10.0,51,0.00,,,0.00,meteohub,2013-02-06 00:15:00,
2013-02-05 16:20:00,47.8,30.6,30.01,SE,142,3.0,9.0,51,0.00,,,0.00,meteohub,2013-02-06 00:20:00,
2013-02-05 16:25:00,47.8,30.6,30.01,ENE,65,5.0,6.0,51,0.00,,,0.00,meteohub,2013-02-06 00:25:00,
2013-02-05 16:30:00,47.7,30.4,30.01,East,100,4.0,10.0,51,0.00,,,0.00,meteohub,2013-02-06 00:30:00,
2013-02-05 16:35:00,47.7,30.0,30.01,SSW,193,2.0,10.0,50,0.00,,,0.00,meteohub,2013-02-06 00:35:00,
2013-02-05 16:40:00,47.7,30.0,30.01,South,180,4.0,9.0,50,0.00,,,0.00,meteohub,2013-02-06 00:40:00,
2013-02-05 16:45:00,47.5,30.2,30.01,East,94,5.0,10.0,51,0.00,,,0.00,meteohub,2013-02-06 00:45:00,
2013-02-05 16:51:00,47.3,31.1,30.01,SW,214,2.0,10.0,53,0.00,,,0.00,meteohub,2013-02-06 00:51:00,
2013-02-05 16:56:00,46.9,30.7,30.01,WNW,286,6.0,10.0,53,0.00,,,0.00,meteohub,2013-02-06 00:56:00,
2013-02-05 17:01:00,46.8,30.6,30.01,ESE,103,4.0,10.0,53,0.00,,,0.00,meteohub,2013-02-06 01:01:00,
2013-02-05 17:06:00,46.6,30.4,30.01,SSE,150,3.0,9.0,53,0.00,,,0.00,meteohub,2013-02-06 01:06:00,
2013-02-05 17:11:00,46.4,29.7,30.01,South,188,3.0,8.0,52,0.00,,,0.00,meteohub,2013-02-06 01:11:00,
2013-02-05 17:16:00,46.2,29.5,30.01,ESE,108,7.0,9.0,52,0.00,,,0.00,meteohub,2013-02-06 01:16:00,
2013-02-05 17:21:00,46.0,28.4,30.01,SE,145,4.0,9.0,50,0.00,,,0.00,meteohub,2013-02-06 01:21:00,
2013-02-05 17:26:00,46.0,27.9,30.01,SSE,160,3.0,11.0,49,0.00,,,0.00,meteohub,2013-02-06 01:26:00,
2013-02-05 17:32:00,45.9,27.9,30.00,SSE,151,8.0,12.0,49,0.00,,,0.00,meteohub,2013-02-06 01:32:00,
2013-02-05 17:37:00,45.7,27.7,30.01,East,84,4.0,12.0,49,0.00,,,0.00,meteohub,2013-02-06 01:37:00,
2013-02-05 17:42:00,45.3,27.3,30.00,ESE,107,2.0,11.0,49,0.00,,,0.00,meteohub,2013-02-06 01:42:00,
2013-02-05 17:47:00,45.1,27.1,30.01,West,276,1.0,9.0,49,0.00,,,0.00,meteohub,2013-02-06 01:47:00,
2013-02-05 17:52:00,45.0,27.0,30.01,SE,136,1.0,9.0,49,0.00,,,0.00,meteohub,2013-02-06 01:52:00,
2013-02-05 17:57:00,44.8,27.3,30.01,SW,221,2.0,8.0,50,0.00,,,0.00,meteohub,2013-02-06 01:57:00,
2013-02-05 18:02:00,44.8,26.8,30.01,SSE,162,2.0,7.0,49,0.00,,,0.00,meteohub,2013-02-06 02:02:00,
2013-02-05 18:07:00,45.0,27.0,30.01,SSE,165,2.0,7.0,49,0.00,,,0.00,meteohub,2013-02-06 02:07:00,
2013-02-05 18:12:00,45.1,27.7,30.01,ESE,115,3.0,9.0,50,0.00,,,0.00,meteohub,2013-02-06 02:12:00,
2013-02-05 18:17:00,45.0,27.9,30.01,ENE,70,1.0,9.0,51,0.00,,,0.00,meteohub,2013-02-06 02:17:00,
2013-02-05 18:22:00,44.8,27.7,30.01,West,262,0.0,9.0,51,0.00,,,0.00,meteohub,2013-02-06 02:22:00,
2013-02-05 18:27:00,44.6,27.1,30.01,West,281,1.0,9.0,50,0.00,,,0.00,meteohub,2013-02-06 02:27:00,
2013-02-05 18:32:00,44.8,27.7,30.01,West,273,2.0,9.0,51,0.00,,,0.00,meteohub,2013-02-06 02:32:00,
2013-02-05 18:37:00,44.6,26.6,30.01,East,91,4.0,10.0,49,0.00,,,0.00,meteohub,2013-02-06 02:37:00,
2013-02-05 18:42:00,44.8,26.8,30.01,NE,44,1.0,10.0,49,0.00,,,0.00,meteohub,2013-02-06 02:42:00,
2013-02-05 18:47:00,44.8,27.3,30.01,SSW,198,4.0,10.0,50,0.00,,,0.00,meteohub,2013-02-06 02:47:00,
2013-02-05 18:52:00,44.8,26.8,30.01,SSW,193,2.0,9.0,49,0.00,,,0.00,meteohub,2013-02-06 02:52:00,
2013-02-05 18:57:00,44.8,26.8,30.01,East,97,7.0,10.0,49,0.00,,,0.00,meteohub,2013-02-06 02:57:00,
2013-02-05 19:02:00,45.0,27.0,30.02,SSE,155,5.0,10.0,49,0.00,,,0.00,meteohub,2013-02-06 03:02:00,
2013-02-05 19:07:00,45.0,27.0,30.02,SSW,211,2.0,10.0,49,0.00,,,0.00,meteohub,2013-02-06 03:07:00,
2013-02-05 19:12:00,45.0,27.0,30.02,ESE,113,5.0,10.0,49,0.00,,,0.00,meteohub,2013-02-06 03:12:00,
2013-02-05 19:17:00,45.0,27.0,30.02,ESE,117,4.0,10.0,49,0.00,,,0.00,meteohub,2013-02-06 03:17:00,
2013-02-05 19:23:00,45.0,27.0,30.02,SE,128,5.0,11.0,49,0.00,,,0.00,meteohub,2013-02-06 03:23:00,
2013-02-05 19:28:00,45.1,27.1,30.02,SE,139,5.0,11.0,49,0.00,,,0.00,meteohub,2013-02-06 03:28:00,
2013-02-05 19:33:00,45.0,27.0,30.02,East,100,2.0,11.0,49,0.00,,,0.00,meteohub,2013-02-06 03:33:00,
2013-02-05 19:38:00,44.6,27.5,30.02,SE,124,4.0,9.0,51,0.00,,,0.00,meteohub,2013-02-06 03:38:00,
2013-02-05 19:43:00,44.4,27.0,30.02,ESE,103,2.0,9.0,50,0.00,,,0.00,meteohub,2013-02-06 03:43:00,
2013-02-05 19:48:00,44.4,27.0,30.02,South,174,3.0,8.0,50,0.00,,,0.00,meteohub,2013-02-06 03:48:00,
2013-02-05 19:53:00,44.4,27.5,30.02,SSE,152,3.0,9.0,51,0.00,,,0.00,meteohub,2013-02-06 03:53:00,
2013-02-05 19:58:00,44.4,27.5,30.02,ESE,106,1.0,9.0,51,0.00,,,0.00,meteohub,2013-02-06 03:58:00,
2013-02-05 20:03:00,44.4,27.5,30.02,South,183,8.0,10.0,51,0.00,,,0.00,meteohub,2013-02-06 04:03:00,
2013-02-05 20:09:00,44.2,27.3,30.02,South,172,5.0,10.0,51,0.00,,,0.00,meteohub,2013-02-06 04:09:00,
2013-02-05 20:14:00,44.1,27.5,30.02,South,170,5.0,10.0,52,0.00,,,0.00,meteohub,2013-02-06 04:14:00,
2013-02-05 20:19:00,44.1,28.0,30.02,ESE,110,3.0,10.0,53,0.00,,,0.00,meteohub,2013-02-06 04:19:00,
2013-02-05 20:24:00,43.9,28.4,30.02,East,87,5.0,12.0,54,0.00,,,0.00,meteohub,2013-02-06 04:24:00,
2013-02-05 20:29:00,43.9,27.9,30.02,SE,136,3.0,13.0,53,0.00,,,0.00,meteohub,2013-02-06 04:29:00,
2013-02-05 20:34:00,43.9,27.9,30.02,SE,132,2.0,13.0,53,0.00,,,0.00,meteohub,2013-02-06 04:34:00,
2013-02-05 20:39:00,43.9,28.4,30.02,SSE,148,2.0,12.0,54,0.00,,,0.00,meteohub,2013-02-06 04:39:00,
2013-02-05 20:44:00,43.9,28.8,30.02,East,91,3.0,12.0,55,0.00,,,0.00,meteohub,2013-02-06 04:44:00,
2013-02-05 20:49:00,43.5,28.0,30.02,SSE,166,7.0,14.0,54,0.00,,,0.00,meteohub,2013-02-06 04:49:00,
2013-02-05 20:54:00,43.5,28.4,30.02,East,98,4.0,14.0,55,0.00,,,0.00,meteohub,2013-02-06 04:54:00,
2013-02-05 20:59:00,43.5,28.9,30.02,East,98,2.0,14.0,56,0.00,,,0.00,meteohub,2013-02-06 04:59:00,
2013-02-05 21:00:00,43.5,28.9,30.02,SSW,212,3.0,14.0,56,0.00,,,0.00,meteohub,2013-02-06 05:00:00,
2013-02-05 21:01:00,43.5,28.9,30.03,South,179,2.0,14.0,56,0.00,,,0.00,meteohub,2013-02-06 05:01:00,
2013-02-05 21:06:00,43.5,28.4,30.03,ESE,114,2.0,14.0,55,0.00,,,0.00,meteohub,2013-02-06 05:06:00,
2013-02-05 21:12:00,43.3,29.1,30.03,East,79,5.0,14.0,57,0.00,,,0.00,meteohub,2013-02-06 05:12:00,
2013-02-05 21:17:00,43.3,29.5,30.03,SSE,159,1.0,11.0,58,0.00,,,0.00,meteohub,2013-02-06 05:17:00,
2013-02-05 21:22:00,43.3,29.5,30.03,SSE,155,3.0,11.0,58,0.00,,,0.00,meteohub,2013-02-06 05:22:00,
2013-02-05 21:27:00,43.2,29.3,30.03,ESE,122,1.0,9.0,58,0.00,,,0.00,meteohub,2013-02-06 05:27:00,
2013-02-05 21:32:00,43.2,29.3,30.03,SW,226,2.0,9.0,58,0.00,,,0.00,meteohub,2013-02-06 05:32:00,
2013-02-05 21:37:00,43.0,29.3,30.04,South,173,0.0,8.0,58,0.00,,,0.00,meteohub,2013-02-06 05:37:00,
2013-02-05 21:42:00,42.8,29.1,30.04,SSW,200,2.0,8.0,58,0.00,,,0.00,meteohub,2013-02-06 05:42:00,
2013-02-05 21:47:00,43.0,28.8,30.03,WNW,289,1.0,8.0,57,0.00,,,0.00,meteohub,2013-02-06 05:47:00,
2013-02-05 21:52:00,43.0,28.8,30.03,East,100,2.0,7.0,57,0.00,,,0.00,meteohub,2013-02-06 05:52:00,
2013-02-05 21:57:00,43.2,28.0,30.04,NW,322,2.0,9.0,55,0.00,,,0.00,meteohub,2013-02-06 05:57:00,
2013-02-05 22:02:00,43.3,28.2,30.03,ESE,113,3.0,9.0,55,0.00,,,0.00,meteohub,2013-02-06 06:02:00,
2013-02-05 22:07:00,43.5,28.4,30.03,ESE,122,6.0,10.0,55,0.00,,,0.00,meteohub,2013-02-06 06:07:00,
2013-02-05 22:12:00,43.3,28.2,30.04,East,98,8.0,10.0,55,0.00,,,0.00,meteohub,2013-02-06 06:12:00,
2013-02-05 22:17:00,43.5,28.4,30.03,ESE,107,1.0,10.0,55,0.00,,,0.00,meteohub,2013-02-06 06:17:00,
2013-02-05 22:22:00,43.5,28.0,30.03,ESE,105,4.0,9.0,54,0.00,,,0.00,meteohub,2013-02-06 06:22:00,
2013-02-05 22:27:00,43.5,28.0,30.03,ESE,115,2.0,9.0,54,0.00,,,0.00,meteohub,2013-02-06 06:27:00,
2013-02-05 22:32:00,43.5,27.5,30.03,SE,134,2.0,8.0,53,0.00,,,0.00,meteohub,2013-02-06 06:32:00,
2013-02-05 22:37:00,43.5,27.5,30.03,SSW,210,2.0,6.0,53,0.00,,,0.00,meteohub,2013-02-06 06:37:00,
2013-02-05 22:42:00,43.5,28.0,30.03,WSW,254,2.0,8.0,54,0.00,,,0.00,meteohub,2013-02-06 06:42:00,
2013-02-05 22:47:00,43.5,28.0,30.03,SSE,153,3.0,8.0,54,0.00,,,0.00,meteohub,2013-02-06 06:47:00,
2013-02-05 22:52:00,43.5,28.0,30.03,SSE,148,3.0,7.0,54,0.00,,,0.00,meteohub,2013-02-06 06:52:00,
2013-02-05 22:57:00,43.5,28.0,30.03,SE,135,5.0,7.0,54,0.00,,,0.00,meteohub,2013-02-06 06:57:00,
2013-02-05 23:02:00,43.5,28.0,30.03,East,91,1.0,7.0,54,0.00,,,0.00,meteohub,2013-02-06 07:02:00,
2013-02-05 23:07:00,43.5,28.0,30.02,SSW,196,1.0,9.0,54,0.00,,,0.00,meteohub,2013-02-06 07:07:00,
2013-02-05 23:12:00,43.5,28.0,30.02,ESE,107,2.0,9.0,54,0.00,,,0.00,meteohub,2013-02-06 07:12:00,
2013-02-05 23:17:00,43.2,28.0,30.02,West,265,0.0,7.0,55,0.00,,,0.00,meteohub,2013-02-06 07:17:00,
2013-02-05 23:22:00,43.2,27.7,30.02,West,270,0.0,7.0,54,0.00,,,0.00,meteohub,2013-02-06 07:22:00,
2013-02-05 23:27:00,43.3,27.3,30.02,West,278,0.0,7.0,53,0.00,,,0.00,meteohub,2013-02-06 07:27:00,
2013-02-05 23:32:00,43.2,27.1,30.01,East,87,4.0,4.0,53,0.00,,,0.00,meteohub,2013-02-06 07:32:00,
2013-02-05 23:37:00,43.3,27.3,30.01,South,169,1.0,4.0,53,0.00,,,0.00,meteohub,2013-02-06 07:37:00,
2013-02-05 23:42:00,43.2,27.1,30.01,SE,145,1.0,4.0,53,0.00,,,0.00,meteohub,2013-02-06 07:42:00,
2013-02-05 23:47:00,43.2,27.1,30.02,South,170,3.0,5.0,53,0.00,,,0.00,meteohub,2013-02-06 07:47:00,
2013-02-05 23:52:00,43.2,27.1,30.01,WSW,245,1.0,5.0,53,0.00,,,0.00,meteohub,2013-02-06 07:52:00,
2013-02-05 23:57:00,43.0,27.5,30.01,West,259,0.0,5.0,54,0.00,,,0.00,meteohub,2013-02-06 07:57:00,